createdAt,value
2018-08-28T00:00:10.887Z,101339.55
2018-08-28T00:02:42.038Z,101340.05
2018-08-28T00:05:10.955Z,101339.52
2018-08-28T00:07:39.829Z,101336.79
2018-08-28T00:10:08.802Z,101337.31
2018-08-28T00:12:37.814Z,101338.48
2018-08-28T00:15:06.911Z,101336.46
2018-08-28T00:17:35.814Z,101342.81
2018-08-28T00:20:04.843Z,101349.27
2018-08-28T00:22:33.753Z,101348.59
2018-08-28T00:25:05.142Z,101340.37
2018-08-28T00:27:31.657Z,101343.97
2018-08-28T00:30:00.582Z,101350.32
2018-08-28T00:32:29.477Z,101350.84
2018-08-28T00:34:58.349Z,101347.73
2018-08-28T00:37:27.343Z,101357.17
2018-08-28T00:39:56.233Z,101357.67
2018-08-28T00:42:25.159Z,101356.14
2018-08-28T00:44:56.789Z,101353.07
2018-08-28T00:47:25.682Z,101363.34
2018-08-28T00:49:57.121Z,101358.72
2018-08-28T00:52:26.062Z,101361.11
2018-08-28T00:54:54.893Z,101360.40
2018-08-28T00:57:23.797Z,101359.91
2018-08-28T00:59:52.710Z,101357.84
2018-08-28T01:02:21.556Z,101354.92
2018-08-28T01:04:50.556Z,101355.45
2018-08-28T01:07:19.473Z,101360.77
2018-08-28T01:09:48.461Z,101363.34
2018-08-28T01:12:17.335Z,101359.39
2018-08-28T01:14:46.284Z,101364.18
2018-08-28T01:17:15.143Z,101358.01
2018-08-28T01:19:44.086Z,101360.05
2018-08-28T01:22:13.017Z,101360.91
2018-08-28T01:24:41.949Z,101355.96
2018-08-28T01:27:10.869Z,101361.95
2018-08-28T01:29:39.808Z,101359.70
2018-08-28T01:32:08.705Z,101366.92
2018-08-28T01:34:37.672Z,101363.83
2018-08-28T01:37:06.615Z,101367.42
2018-08-28T01:39:35.503Z,101364.02
2018-08-28T01:42:04.671Z,101365.38
2018-08-28T01:44:33.563Z,101366.23
2018-08-28T01:47:02.483Z,101367.61
2018-08-28T01:49:31.671Z,101368.63
2018-08-28T01:52:00.532Z,101372.05
2018-08-28T01:54:29.404Z,101370.38
2018-08-28T01:56:58.341Z,101371.73
2018-08-28T01:59:27.247Z,101375.13
2018-08-28T02:01:56.308Z,101377.69
2018-08-28T02:04:25.243Z,101375.32
2018-08-28T02:06:54.059Z,101372.92
2018-08-28T02:09:22.970Z,101373.94
2018-08-28T02:11:51.850Z,101379.77
2018-08-28T02:14:20.843Z,101378.03
2018-08-28T02:16:49.651Z,101375.28
2018-08-28T02:19:18.595Z,101376.67
2018-08-28T02:21:47.544Z,101379.92
2018-08-28T02:24:16.505Z,101378.04
2018-08-28T02:26:45.554Z,101376.84
2018-08-28T02:29:16.605Z,101379.25
2018-08-28T02:31:43.280Z,101381.45
2018-08-28T02:34:12.300Z,101382.67
2018-08-28T02:36:41.243Z,101380.43
2018-08-28T02:39:11.215Z,101379.94
2018-08-28T02:41:42.829Z,101382.72
2018-08-28T02:44:11.797Z,101382.52
2018-08-28T02:46:42.423Z,101379.42
2018-08-28T02:49:09.600Z,101378.20
2018-08-28T02:51:41.564Z,101377.89
2018-08-28T02:54:07.619Z,101373.12
2018-08-28T02:56:36.542Z,101371.53
2018-08-28T02:59:05.483Z,101370.86
2018-08-28T03:01:34.449Z,101379.94
2018-08-28T03:04:05.381Z,101379.41
2018-08-28T03:06:34.295Z,101379.06
2018-08-28T03:09:03.791Z,101375.83
2018-08-28T03:11:32.635Z,101382.03
2018-08-28T03:14:01.569Z,101378.78
2018-08-28T03:16:34.508Z,101377.54
2018-08-28T03:19:03.555Z,101377.06
2018-08-28T03:21:35.217Z,101380.13
2018-08-28T03:24:04.200Z,101377.36
2018-08-28T03:26:33.106Z,101376.84
2018-08-28T03:29:02.114Z,101377.55
2018-08-28T03:31:30.899Z,101378.04
2018-08-28T03:33:59.878Z,101384.54
2018-08-28T03:36:28.778Z,101384.20
2018-08-28T03:38:57.745Z,101381.95
2018-08-28T03:41:26.639Z,101388.45
2018-08-28T03:43:55.934Z,101378.70
2018-08-28T03:46:26.395Z,101385.88
2018-08-28T03:48:55.679Z,101387.25
2018-08-28T03:51:24.573Z,101382.30
2018-08-28T03:53:53.479Z,101390.34
2018-08-28T03:56:22.544Z,101395.12
2018-08-28T03:58:51.378Z,101399.06
2018-08-28T04:01:20.233Z,101394.11
2018-08-28T04:03:49.149Z,101406.75
2018-08-28T04:06:22.937Z,101412.74
2018-08-28T04:08:47.104Z,101407.45
2018-08-28T04:11:16.087Z,101413.78
2018-08-28T04:13:45.026Z,101408.12
2018-08-28T04:16:14.020Z,101407.45
2018-08-28T04:18:42.910Z,101414.63
2018-08-28T04:21:11.943Z,101412.74
2018-08-28T04:23:40.776Z,101407.78
2018-08-28T04:26:09.696Z,101409.50
2018-08-28T04:28:38.628Z,101414.13
2018-08-28T04:31:07.557Z,101414.13
2018-08-28T04:33:36.500Z,101418.20
2018-08-28T04:36:05.506Z,101418.20
2018-08-28T04:38:37.430Z,101426.60
2018-08-28T04:41:05.034Z,101425.23
2018-08-28T04:43:32.234Z,101426.25
2018-08-28T04:46:02.954Z,101428.30
2018-08-28T04:48:34.936Z,101428.45
2018-08-28T04:51:06.411Z,101427.46
2018-08-28T04:53:32.858Z,101428.99
2018-08-28T04:56:01.889Z,101435.67
2018-08-28T04:58:30.832Z,101428.45
2018-08-28T05:00:59.890Z,101443.35
2018-08-28T05:03:28.803Z,101442.17
2018-08-28T05:06:00.188Z,101442.84
2018-08-28T05:08:29.122Z,101439.27
2018-08-28T05:10:58.170Z,101446.76
2018-08-28T05:13:27.166Z,101446.76
2018-08-28T05:15:56.325Z,101445.20
2018-08-28T05:18:25.158Z,101447.94
2018-08-28T05:20:54.185Z,101448.31
2018-08-28T05:23:25.667Z,101453.98
2018-08-28T05:25:54.625Z,101457.39
2018-08-28T05:28:23.613Z,101460.47
2018-08-28T05:30:52.792Z,101460.47
2018-08-28T05:33:21.997Z,101464.25
2018-08-28T05:35:50.868Z,101466.13
2018-08-28T05:38:19.766Z,101469.59
2018-08-28T05:40:48.751Z,101469.25
2018-08-28T05:43:19.690Z,101466.51
2018-08-28T05:45:48.672Z,101468.03
2018-08-28T05:48:17.542Z,101468.55
2018-08-28T05:50:46.451Z,101480.67
2018-08-28T05:53:15.387Z,101477.53
2018-08-28T05:55:44.315Z,101479.92
2018-08-28T05:58:14.994Z,101485.34
2018-08-28T06:00:44.943Z,101487.71
2018-08-28T06:03:13.972Z,101483.24
2018-08-28T06:05:42.728Z,101485.58
2018-08-28T06:08:11.697Z,101484.45
2018-08-28T06:10:40.614Z,101486.66
2018-08-28T06:13:09.758Z,101485.48
2018-08-28T06:15:38.812Z,101491.62
2018-08-28T06:18:14.214Z,101490.08
2018-08-28T06:20:43.260Z,101486.33
2018-08-28T06:23:12.212Z,101489.58
2018-08-28T06:25:47.972Z,101485.48
2018-08-28T06:28:10.071Z,101493.55
2018-08-28T06:30:38.949Z,101495.42
2018-08-28T06:33:07.990Z,101495.42
2018-08-28T06:35:36.869Z,101501.25
2018-08-28T06:38:05.801Z,101501.27
2018-08-28T06:40:37.264Z,101503.66
2018-08-28T06:43:06.258Z,101500.74
2018-08-28T06:45:38.324Z,101507.25
2018-08-28T06:48:07.121Z,101505.73
2018-08-28T06:50:38.845Z,101512.77
2018-08-28T06:53:09.775Z,101507.44
2018-08-28T06:55:37.321Z,101513.78
2018-08-28T06:58:06.800Z,101510.87
2018-08-28T07:00:35.954Z,101514.64
2018-08-28T07:03:05.008Z,101519.42
2018-08-28T07:05:34.534Z,101520.44
2018-08-28T07:08:03.613Z,101524.17
2018-08-28T07:10:32.855Z,101527.66
2018-08-28T07:13:01.694Z,101524.72
2018-08-28T07:15:30.781Z,101531.76
2018-08-28T07:17:59.704Z,101529.69
2018-08-28T07:20:28.545Z,101537.24
2018-08-28T07:23:03.153Z,101535.13
2018-08-28T07:25:32.150Z,101538.05
2018-08-28T07:28:23.097Z,101537.36
2018-08-28T07:31:06.961Z,101540.59
2018-08-28T07:33:58.607Z,101538.77
2018-08-28T07:36:53.390Z,101542.53
2018-08-28T07:39:33.026Z,101540.31
2018-08-28T07:42:35.779Z,101544.20
2018-08-28T07:45:23.512Z,101548.03
2018-08-28T07:48:14.360Z,101553.84
2018-08-28T07:50:49.827Z,101551.44
2018-08-28T07:53:17.751Z,101549.14
2018-08-28T07:59:20.874Z,101552.75
2018-08-28T08:01:57.782Z,101551.41
2018-08-28T08:04:42.314Z,101551.16
2018-08-28T08:07:22.561Z,101554.38
2018-08-28T08:10:13.540Z,101550.77
2018-08-28T08:13:09.628Z,101554.36
2018-08-28T08:16:08.018Z,101550.36
2018-08-28T08:18:57.973Z,101556.03
2018-08-28T08:21:49.568Z,101560.45
2018-08-28T08:24:34.796Z,101562.68
2018-08-28T08:27:26.442Z,101567.67
2018-08-28T08:30:02.564Z,101567.80
2018-08-28T08:32:53.981Z,101567.39
2018-08-28T08:35:50.629Z,101567.67
2018-08-28T08:38:13.750Z,101576.36
2018-08-28T08:40:53.716Z,101577.05
2018-08-28T08:43:23.146Z,101581.44
2018-08-28T08:46:19.181Z,101584.72
2018-08-28T08:49:01.113Z,101592.56
2018-08-28T08:51:52.075Z,101586.87
2018-08-28T08:54:25.601Z,101582.87
2018-08-28T08:57:02.559Z,101575.03
2018-08-28T08:59:48.412Z,101578.23
2018-08-28T09:02:35.592Z,101574.88
2018-08-28T09:05:12.459Z,101578.47
2018-08-28T09:07:40.368Z,101573.36
2018-08-28T09:10:17.630Z,101572.22
2018-08-28T09:12:56.821Z,101573.61
2018-08-28T09:15:39.836Z,101568.02
2018-08-28T09:18:14.872Z,101563.00
2018-08-28T09:21:52.251Z,101557.48
2018-08-28T09:23:34.650Z,101561.42
2018-08-28T09:26:17.378Z,101554.86
2018-08-28T09:28:49.648Z,101549.31
2018-08-28T09:31:19.249Z,101538.44
2018-08-28T09:33:57.552Z,101536.72
2018-08-28T09:36:32.802Z,101552.58
2018-08-28T09:39:10.544Z,101547.62
2018-08-28T09:41:46.806Z,101549.35
2018-08-28T09:44:23.050Z,101533.92
2018-08-28T09:46:55.608Z,101541.25
2018-08-28T09:49:27.553Z,101536.30
2018-08-28T09:51:57.598Z,101528.77
2018-08-28T09:54:26.883Z,101529.77
2018-08-28T09:57:00.147Z,101533.64
2018-08-28T09:59:31.813Z,101547.17
2018-08-28T10:02:05.085Z,101533.56
2018-08-28T10:04:44.202Z,101533.30
2018-08-28T10:07:26.732Z,101535.98
2018-08-28T10:10:08.987Z,101542.45
2018-08-28T10:12:39.591Z,101543.90
2018-08-28T10:15:13.748Z,101542.22
2018-08-28T10:17:48.584Z,101537.29
2018-08-28T10:20:35.536Z,101538.28
2018-08-28T10:23:14.398Z,101542.28
2018-08-28T10:25:50.035Z,101535.09
2018-08-28T10:28:27.309Z,101533.29
2018-08-28T10:30:59.546Z,101529.45
2018-08-28T10:33:42.473Z,101532.30
2018-08-28T10:36:24.797Z,101536.03
2018-08-28T10:38:57.662Z,101536.70
2018-08-28T10:41:43.625Z,101536.13
2018-08-28T10:44:19.165Z,101528.26
2018-08-28T10:46:51.546Z,101522.94
2018-08-28T10:49:21.171Z,101529.47
2018-08-28T10:51:53.944Z,101523.55
2018-08-28T10:54:33.672Z,101520.19
2018-08-28T10:57:25.700Z,101528.91
2018-08-28T11:00:09.929Z,101518.08
2018-08-28T11:02:45.800Z,101515.30
2018-08-28T11:05:21.179Z,101518.14
2018-08-28T11:07:46.613Z,101503.54
2018-08-28T11:10:19.513Z,101517.39
2018-08-28T11:12:59.613Z,101519.11
2018-08-28T11:15:36.367Z,101520.38
2018-08-28T11:18:06.432Z,101517.84
2018-08-28T11:20:36.196Z,101519.86
2018-08-28T11:23:24.736Z,101513.45
2018-08-28T11:25:57.623Z,101518.14
2018-08-28T11:28:40.507Z,101523.61
2018-08-28T11:31:19.029Z,101525.59
2018-08-28T11:33:50.989Z,101523.59
2018-08-28T11:36:29.551Z,101527.59
2018-08-28T11:38:56.468Z,101530.92
2018-08-28T11:41:31.020Z,101528.91
2018-08-28T11:44:02.845Z,101522.30
2018-08-28T11:46:40.530Z,101517.80
2018-08-28T11:49:15.942Z,101518.81
2018-08-28T11:51:47.833Z,101509.33
2018-08-28T11:54:20.268Z,101508.71
2018-08-28T11:56:50.568Z,101510.64
2018-08-28T11:59:30.075Z,101512.73
2018-08-28T12:02:00.694Z,101506.17
2018-08-28T12:04:43.156Z,101510.53
2018-08-28T12:07:26.746Z,101511.87
2018-08-28T12:09:54.484Z,101509.62
2018-08-28T12:12:49.810Z,101505.90
2018-08-28T12:15:17.459Z,101510.73
2018-08-28T12:17:48.978Z,101512.52
2018-08-28T12:20:21.464Z,101504.95
2018-08-28T12:22:53.586Z,101503.53
2018-08-28T12:25:31.635Z,101505.28
2018-08-28T12:28:27.567Z,101498.16
2018-08-28T12:30:58.232Z,101500.48
2018-08-28T12:33:35.157Z,101495.84
2018-08-28T12:36:19.384Z,101505.44
2018-08-28T12:38:56.244Z,101504.30
2018-08-28T12:41:33.769Z,101498.44
2018-08-28T12:44:20.666Z,101498.60
2018-08-28T12:46:46.943Z,101498.31
2018-08-28T12:49:21.353Z,101492.17
2018-08-28T12:51:53.827Z,101495.50
2018-08-28T12:54:29.865Z,101493.96
2018-08-28T12:57:05.284Z,101489.77
2018-08-28T12:59:39.468Z,101485.87
2018-08-28T13:02:18.059Z,101488.84
2018-08-28T13:04:47.462Z,101490.99
2018-08-28T13:07:32.961Z,101485.09
2018-08-28T13:10:02.428Z,101479.02
2018-08-28T13:12:41.378Z,101480.41
2018-08-28T13:15:19.767Z,101477.84
2018-08-28T13:17:59.743Z,101478.56
2018-08-28T13:20:29.214Z,101475.92
2018-08-28T13:23:08.571Z,101477.91
2018-08-28T13:25:32.014Z,101465.48
2018-08-28T13:28:07.038Z,101467.94
2018-08-28T13:30:44.059Z,101463.35
2018-08-28T13:33:21.311Z,101462.35
2018-08-28T13:35:55.497Z,101456.70
2018-08-28T13:38:37.241Z,101455.35
2018-08-28T13:41:13.124Z,101452.81
2018-08-28T13:43:43.423Z,101459.02
2018-08-28T13:46:18.585Z,101457.92
2018-08-28T13:48:49.741Z,101454.36
2018-08-28T13:51:25.147Z,101450.53
2018-08-28T13:54:02.874Z,101452.83
2018-08-28T13:56:31.563Z,101450.19
2018-08-28T13:59:11.873Z,101452.08
2018-08-28T14:01:47.651Z,101452.50
2018-08-28T14:04:34.585Z,101451.76
2018-08-28T14:07:04.211Z,101442.91
2018-08-28T14:09:35.498Z,101436.02
2018-08-28T14:12:16.894Z,101442.95
2018-08-28T14:14:52.851Z,101446.17
2018-08-28T14:17:24.659Z,101442.81
2018-08-28T14:20:03.350Z,101446.55
2018-08-28T14:22:36.879Z,101449.19
2018-08-28T14:25:18.221Z,101451.38
2018-08-28T14:28:05.328Z,101437.06
2018-08-28T14:31:06.963Z,101441.97
2018-08-28T14:33:40.494Z,101439.19
2018-08-28T14:36:17.804Z,101437.27
2018-08-28T14:38:42.657Z,101434.71
2018-08-28T14:41:17.500Z,101435.86
2018-08-28T14:43:57.724Z,101431.21
2018-08-28T14:46:27.175Z,101429.73
2018-08-28T14:48:56.946Z,101419.59
2018-08-28T14:51:26.486Z,101420.47
2018-08-28T14:53:58.956Z,101420.35
2018-08-28T14:56:30.951Z,101418.02
2018-08-28T14:58:59.915Z,101413.45
2018-08-28T15:01:28.881Z,101417.93
2018-08-28T15:03:57.780Z,101416.66
2018-08-28T15:06:29.123Z,101411.00
2018-08-28T15:08:55.596Z,101408.32
2018-08-28T15:11:24.577Z,101404.06
2018-08-28T15:13:53.508Z,101397.79
2018-08-28T15:16:22.454Z,101398.95
2018-08-28T15:18:51.233Z,101400.97
2018-08-28T15:21:20.129Z,101403.07
2018-08-28T15:23:49.029Z,101408.09
2018-08-28T15:26:17.882Z,101397.14
2018-08-28T15:28:46.786Z,101389.25
2018-08-28T15:31:16.278Z,101389.56
2018-08-28T15:33:47.987Z,101389.80
2018-08-28T15:36:17.610Z,101390.23
2018-08-28T15:38:47.074Z,101388.72
2018-08-28T15:41:16.944Z,101382.24
2018-08-28T15:43:46.432Z,101376.05
2018-08-28T15:46:18.603Z,101385.53
2018-08-28T15:48:47.487Z,101381.79
2018-08-28T15:51:16.373Z,101385.64
2018-08-28T15:53:45.278Z,101384.04
2018-08-28T15:56:14.231Z,101380.00
2018-08-28T15:58:43.200Z,101379.67
2018-08-28T16:01:12.021Z,101369.97
2018-08-28T16:03:40.961Z,101373.27
2018-08-28T16:06:09.885Z,101369.70
2018-08-28T16:08:38.791Z,101372.87
2018-08-28T16:11:07.676Z,101363.20
2018-08-28T16:13:38.434Z,101361.67
2018-08-28T16:16:07.910Z,101360.23
2018-08-28T16:18:37.142Z,101356.20
2018-08-28T16:21:13.288Z,101349.61
2018-08-28T16:23:46.674Z,101351.52
2018-08-28T16:26:19.233Z,101351.84
2018-08-28T16:28:48.387Z,101352.05
2018-08-28T16:31:17.507Z,101344.61
2018-08-28T16:33:51.805Z,101341.72
2018-08-28T16:36:34.478Z,101346.92
2018-08-28T16:39:00.621Z,101345.02
2018-08-28T16:41:42.981Z,101331.92
2018-08-28T16:44:14.535Z,101327.45
2018-08-28T16:46:44.220Z,101332.33
2018-08-28T16:49:19.247Z,101327.53
2018-08-28T16:51:48.135Z,101323.13
2018-08-28T16:54:17.107Z,101322.69
2018-08-28T16:56:46.020Z,101325.63
2018-08-28T16:59:15.054Z,101321.16
2018-08-28T17:01:44.160Z,101315.19
2018-08-28T17:04:13.117Z,101306.27
2018-08-28T17:06:44.627Z,101308.68
2018-08-28T17:09:13.497Z,101307.70
2018-08-28T17:11:42.647Z,101299.61
2018-08-28T17:14:11.534Z,101299.80
2018-08-28T17:16:40.437Z,101295.72
2018-08-28T17:19:09.398Z,101293.26
2018-08-28T17:21:38.372Z,101290.24
2018-08-28T17:24:07.449Z,101287.98
2018-08-28T17:26:36.384Z,101291.55
2018-08-28T17:29:05.441Z,101294.61
2018-08-28T17:31:34.661Z,101286.06
2018-08-28T17:34:03.498Z,101285.31
2018-08-28T17:36:32.458Z,101283.77
2018-08-28T17:39:06.615Z,101282.62
2018-08-28T17:41:33.929Z,101284.16
2018-08-28T17:44:03.080Z,101284.45
2018-08-28T17:46:32.060Z,101287.47
2018-08-28T17:49:01.393Z,101289.73
2018-08-28T17:51:30.159Z,101291.13
2018-08-28T17:54:05.341Z,101294.12
2018-08-28T17:56:31.786Z,101295.83
2018-08-28T17:59:00.905Z,101284.39
2018-08-28T18:01:29.948Z,101288.72
2018-08-28T18:03:58.884Z,101293.22
2018-08-28T18:06:27.847Z,101286.26
2018-08-28T18:08:56.733Z,101286.38
2018-08-28T18:11:35.547Z,101288.98
2018-08-28T18:14:04.457Z,101285.69
2018-08-28T18:16:33.550Z,101280.48
2018-08-28T18:19:03.674Z,101283.21
2018-08-28T18:21:31.149Z,101277.14
2018-08-28T18:24:00.425Z,101283.09
2018-08-28T18:26:31.777Z,101285.98
2018-08-28T18:28:58.364Z,101285.75
2018-08-28T18:31:27.133Z,101286.05
2018-08-28T18:33:56.221Z,101284.62
2018-08-28T18:36:25.248Z,101281.75
2018-08-28T18:38:56.867Z,101277.31
2018-08-28T18:41:25.821Z,101281.00
2018-08-28T18:43:57.639Z,101279.22
2018-08-28T18:46:28.424Z,101289.06
2018-08-28T18:48:59.534Z,101281.56
2018-08-28T18:51:28.561Z,101284.70
2018-08-28T18:53:57.624Z,101286.45
2018-08-28T18:56:26.457Z,101284.09
2018-08-28T18:58:58.520Z,101284.31
2018-08-28T19:01:29.746Z,101285.40
2018-08-28T19:03:59.262Z,101288.22
2018-08-28T19:06:28.241Z,101286.52
2018-08-28T19:09:00.255Z,101287.27
2018-08-28T19:11:29.042Z,101286.24
2018-08-28T19:13:58.008Z,101282.86
2018-08-28T19:16:28.645Z,101285.95
2018-08-28T19:18:57.724Z,101287.67
2018-08-28T19:21:26.618Z,101291.84
2018-08-28T19:23:55.846Z,101290.13
2018-08-28T19:26:24.872Z,101290.36
2018-08-28T19:28:59.387Z,101285.33
2018-08-28T19:31:24.656Z,101286.20
2018-08-28T19:34:02.421Z,101289.33
2018-08-28T19:36:31.445Z,101285.56
2018-08-28T19:39:00.313Z,101278.88
2018-08-28T19:41:31.006Z,101279.39
2018-08-28T19:44:02.588Z,101276.42
2018-08-28T19:46:34.092Z,101268.63
2018-08-28T19:49:05.600Z,101274.13
2018-08-28T19:51:42.952Z,101269.70
2018-08-28T19:54:11.157Z,101274.20
2018-08-28T19:56:44.783Z,101276.42
2018-08-28T19:59:12.213Z,101267.20
2018-08-28T20:01:41.160Z,101268.67
2018-08-28T20:04:10.132Z,101268.06
2018-08-28T20:06:39.219Z,101260.01
2018-08-28T20:09:08.750Z,101256.27
2018-08-28T20:11:37.965Z,101252.88
2018-08-28T20:14:06.855Z,101250.13
2018-08-28T20:16:35.809Z,101247.09
2018-08-28T20:19:06.743Z,101245.17
2018-08-28T20:21:35.551Z,101248.11
2018-08-28T20:24:24.691Z,101233.91
2018-08-28T20:26:51.382Z,101234.94
2018-08-28T20:29:20.278Z,101244.02
2018-08-28T20:31:49.170Z,101241.30
2018-08-28T20:34:21.893Z,101241.28
2018-08-28T20:36:49.164Z,101236.50
2018-08-28T20:39:20.828Z,101239.39
2018-08-28T20:41:52.780Z,101234.95
2018-08-28T20:44:21.954Z,101226.05
2018-08-28T20:46:50.793Z,101228.27
2018-08-28T20:49:19.683Z,101228.44
2018-08-28T20:51:48.570Z,101221.59
2018-08-28T20:54:20.122Z,101222.47
2018-08-28T20:56:51.842Z,101222.29
2018-08-28T20:59:20.856Z,101216.66
2018-08-28T21:01:49.850Z,101214.08
2018-08-28T21:04:21.573Z,101212.19
2018-08-28T21:06:55.865Z,101212.02
2018-08-28T21:09:27.040Z,101211.69
2018-08-28T21:12:03.278Z,101211.33
2018-08-28T21:14:34.436Z,101208.58
2018-08-28T21:17:09.433Z,101204.67
2018-08-28T21:19:38.722Z,101199.51
2018-08-28T21:22:10.428Z,101205.85
2018-08-28T21:24:39.853Z,101201.34
2018-08-28T21:27:09.131Z,101198.79
2018-08-28T21:29:38.076Z,101194.84
2018-08-28T21:32:07.079Z,101195.20
2018-08-28T21:34:36.211Z,101189.87
2018-08-28T21:37:05.229Z,101189.19
2018-08-28T21:39:34.282Z,101183.53
2018-08-28T21:42:03.366Z,101182.34
2018-08-28T21:44:32.333Z,101179.58
2018-08-28T21:47:01.373Z,101179.91
2018-08-28T21:49:30.515Z,101180.26
2018-08-28T21:51:59.396Z,101172.03
2018-08-28T21:54:28.408Z,101176.22
2018-08-28T21:56:57.381Z,101170.70
2018-08-28T21:59:26.267Z,101169.16
2018-08-28T22:01:55.201Z,101173.50
2018-08-28T22:04:24.101Z,101172.23
2018-08-28T22:07:10.421Z,101168.47
2018-08-28T22:09:40.055Z,101168.45
2018-08-28T22:12:11.302Z,101174.41
2018-08-28T22:14:40.296Z,101174.72
2018-08-28T22:17:09.258Z,101168.41
2018-08-28T22:19:38.190Z,101165.77
2018-08-28T22:22:07.102Z,101166.20
2018-08-28T22:24:36.008Z,101160.91
2018-08-28T22:27:04.868Z,101162.94
2018-08-28T22:29:33.759Z,101159.00
2018-08-28T22:32:02.655Z,101155.92
2018-08-28T22:34:31.571Z,101153.86
2018-08-28T22:37:00.544Z,101150.11
2018-08-28T22:39:29.446Z,101153.20
2018-08-28T22:41:58.399Z,101156.44
2018-08-28T22:44:27.351Z,101149.23
2018-08-28T22:46:56.210Z,101152.13
2018-08-28T22:49:25.113Z,101146.66
2018-08-28T22:51:54.037Z,101142.05
2018-08-28T22:54:22.913Z,101136.23
2018-08-28T22:56:51.824Z,101133.99
2018-08-28T22:59:20.751Z,101129.38
2018-08-28T23:01:49.681Z,101126.49
2018-08-28T23:04:18.690Z,101133.27
2018-08-28T23:06:47.593Z,101126.38
2018-08-28T23:09:16.540Z,101122.09
2018-08-28T23:11:45.430Z,101116.77
2018-08-28T23:14:14.465Z,101115.08
2018-08-28T23:16:43.418Z,101114.39
2018-08-28T23:19:12.339Z,101109.78
2018-08-28T23:21:41.301Z,101110.80
2018-08-28T23:24:12.424Z,101110.61
2018-08-28T23:26:39.259Z,101117.09
2018-08-28T23:29:08.149Z,101104.61
2018-08-28T23:31:37.045Z,101105.63
2018-08-28T23:34:08.942Z,101096.77
2018-08-28T23:36:39.910Z,101098.31
2018-08-28T23:39:08.859Z,101106.00
2018-08-28T23:41:37.764Z,101105.81
2018-08-28T23:44:08.624Z,101094.70
2018-08-28T23:46:37.589Z,101096.92
2018-08-28T23:49:06.384Z,101091.97
2018-08-28T23:51:35.313Z,101082.60
2018-08-28T23:54:04.321Z,101083.41
2018-08-28T23:56:35.360Z,101085.98
2018-08-28T23:59:04.406Z,101079.16
